Decoded Metar for LYKV (KRALJEVO/LADEVCI in SERBIA) (IATA:N/A) | Meteo·Mobile Aviation Weather
aviador You're here:

LYKV Decoded Metar

KRALJEVO/LADEVCI in SERBIA
Report Time2018-09-19 20:00:00
UTC Time2018-09-19 20:12:57
Flight Rules vfr VFR
WindVRB at 01 kt
Visibility9999 m
Phenomena:N/A
Clouds:N/A
Expected CloudBase > 1,200 ft AGL from Temp-Dew spread
CeilingNone
Temp17°C (ISA +3)
Dew Point14°C (83% RH)
QNH1021 hPa
Density Alt1,037 ft
Elevation694 ft
Report Wrong Elevation
Raw Report
METAR LYKV 192000Z VRB01KT CAVOK 17/14 Q1021 NOSIG=

Extra information for LYKV:More info

Metar Taf Metar & Taf Last 4 Metars F.Rules Stats Wind Profile Meteogram Temp Stats Airport Information Weather charts Add Link Nearby VenuesMetar ALERT Operation Metar Decoded Social comments